Accueil
METAR-TAF:

METAR-TAF

Aéroports :

Kaiser Lake Ozark, Missouri, États-Unis

latitude: 38-06N, longitude: 092-33W, altitude: 265 m

Observation

Le bulletin a été fait il y a 35 minutes, à 06:56 UTC
Vent 5 kt de sud/sud-est
Température 1°C
Humidité 93%
Pression 1016 hPa
Visibilité: 16.1 km
Ciel couvert à une hauteur de 600 ft
pluie faible

METAR: KAIZ 230656Z AUTO 16005KT 10SM -RA OVC006 01/00 A3000 RMK AO2 UPB49E55RAB55SNE49 SLP165 P0002 T00060000 FZRANO

Heure: 01:31 (07:31 UTC)


TAF: absent

Observations et prévisions météorologiques de plus de 4000 aéroports (messages METAR et TAF).

Les stations disponibles sont représentées par des disques jaunes et rouges sur la carte.

Passer la souris dessus pour voir le nom de la station.

Cliquer dessus pour voir les observations et prévisions météorologiques.

Pour changer de carte: cliquez sur les boutons verts avec une croix noire pour zoomer, sur le bouton vert avec un tiret pour effectuer un zoom arrière, ou sur les flèches vertes pour les cartes adjacentes.


METAR-TAF: